createdAt,value
2024-01-05T00:02:06.433Z,26.45
2024-01-05T00:04:33.360Z,26.45
2024-01-05T00:07:00.324Z,28.50
2024-01-05T00:09:30.360Z,29.30
2024-01-05T00:11:57.358Z,29.27
2024-01-05T00:14:24.444Z,28.02
2024-01-05T00:16:51.260Z,29.25
2024-01-05T00:19:21.259Z,28.40
2024-01-05T00:21:48.195Z,27.67
2024-01-05T00:24:15.251Z,27.67
2024-01-05T00:26:42.653Z,29.27
2024-01-05T00:29:09.636Z,28.70
2024-01-05T00:31:39.602Z,27.08
2024-01-05T00:34:06.703Z,28.05
2024-01-05T00:36:41.289Z,28.67
2024-01-05T00:39:08.328Z,28.88
2024-01-05T00:41:35.344Z,31.05
2024-01-05T00:44:05.170Z,31.98
2024-01-05T00:46:31.877Z,30.55
2024-01-05T00:48:58.971Z,30.80
2024-01-05T00:51:26.370Z,31.48
2024-01-05T00:53:53.245Z,33.80
2024-01-05T00:56:20.223Z,33.05
2024-01-05T00:58:51.260Z,33.65
2024-01-05T01:01:18.071Z,32.70
2024-01-05T01:03:45.062Z,32.53
2024-01-05T01:06:11.925Z,32.28
2024-01-05T01:08:38.818Z,32.10
2024-01-05T01:11:05.552Z,33.08
2024-01-05T01:13:32.669Z,32.05
2024-01-05T01:15:59.496Z,31.90
2024-01-05T01:18:27.243Z,31.15
2024-01-05T01:20:54.164Z,31.48
2024-01-05T01:23:20.925Z,33.17
2024-01-05T01:25:53.951Z,31.33
2024-01-05T01:28:20.707Z,31.13
2024-01-05T01:30:51.240Z,30.33
2024-01-05T01:33:18.560Z,32.47
2024-01-05T01:35:47.830Z,32.85
2024-01-05T01:38:17.574Z,33.00
2024-01-05T01:40:48.514Z,33.42
2024-01-05T01:43:25.105Z,33.33
2024-01-05T01:45:54.101Z,32.00
2024-01-05T01:48:22.062Z,32.47
2024-01-05T01:50:56.574Z,30.55
2024-01-05T01:53:25.579Z,31.23
2024-01-05T01:55:53.679Z,29.90
2024-01-05T01:58:22.926Z,30.80
2024-01-05T02:00:53.655Z,29.38
2024-01-05T02:03:21.162Z,29.30
2024-01-05T02:05:51.133Z,31.05
2024-01-05T02:08:17.937Z,28.77
2024-01-05T02:10:44.811Z,30.98
2024-01-05T02:13:11.774Z,29.48
2024-01-05T02:15:38.727Z,30.02
2024-01-05T02:18:16.283Z,31.33
2024-01-05T02:20:44.341Z,29.85
2024-01-05T02:23:34.761Z,32.90
2024-01-05T02:26:07.284Z,31.40
2024-01-05T02:28:34.136Z,30.75
2024-01-05T02:31:01.009Z,32.05
2024-01-05T02:33:31.788Z,32.25
2024-01-05T02:35:58.601Z,35.03
2024-01-05T02:38:25.621Z,32.28
2024-01-05T02:40:52.412Z,32.35
2024-01-05T02:43:19.178Z,33.47
2024-01-05T02:45:45.958Z,33.22
2024-01-05T02:48:12.950Z,33.75
2024-01-05T02:50:39.829Z,32.85
2024-01-05T02:53:06.652Z,34.80
2024-01-05T02:55:33.544Z,34.13
2024-01-05T02:58:05.945Z,35.47
2024-01-05T03:00:32.876Z,32.92
2024-01-05T03:03:02.958Z,34.20
2024-01-05T03:05:29.767Z,35.03
2024-01-05T03:07:56.723Z,34.83
2024-01-05T03:10:23.464Z,34.80
2024-01-05T03:12:50.283Z,34.83
2024-01-05T03:15:17.103Z,35.20
2024-01-05T03:17:43.965Z,34.83
2024-01-05T03:20:11.035Z,36.10
2024-01-05T03:22:37.817Z,35.80
2024-01-05T03:25:04.899Z,35.33
2024-01-05T03:27:31.694Z,34.83
2024-01-05T03:30:03.801Z,33.92
2024-01-05T03:32:35.259Z,34.17
2024-01-05T03:35:04.731Z,33.70
2024-01-05T03:37:33.490Z,34.50
2024-01-05T03:40:00.648Z,35.53
2024-01-05T03:42:32.935Z,34.08
2024-01-05T03:45:04.254Z,34.95
2024-01-05T03:47:31.566Z,34.75
2024-01-05T03:49:58.392Z,33.05
2024-01-05T03:52:31.158Z,34.53
2024-01-05T03:54:58.331Z,35.25
2024-01-05T03:57:25.242Z,36.55
2024-01-05T03:59:56.709Z,35.22
2024-01-05T04:02:26.419Z,35.63
2024-01-05T04:04:56.633Z,34.45
2024-01-05T04:07:25.672Z,35.53
2024-01-05T04:09:52.518Z,36.17
2024-01-05T04:12:20.358Z,36.63
2024-01-05T04:14:47.429Z,36.45
2024-01-05T04:17:14.249Z,36.08
2024-01-05T04:19:43.676Z,35.42
2024-01-05T04:22:10.530Z,36.92
2024-01-05T04:24:37.307Z,38.15
2024-01-05T04:27:04.361Z,37.53
2024-01-05T04:29:31.115Z,37.58
2024-01-05T04:31:59.945Z,37.58
2024-01-05T04:34:34.890Z,35.80
2024-01-05T04:37:01.761Z,37.50
2024-01-05T04:39:28.662Z,38.42
2024-01-05T04:41:55.707Z,37.75
2024-01-05T04:44:28.534Z,37.45
2024-01-05T04:46:56.788Z,38.42
2024-01-05T04:49:23.672Z,38.90
2024-01-05T04:51:51.298Z,37.80
2024-01-05T04:54:21.174Z,36.38
2024-01-05T04:56:47.995Z,37.45
2024-01-05T04:59:14.770Z,37.92
2024-01-05T05:01:41.829Z,37.40
2024-01-05T05:04:08.885Z,37.92
2024-01-05T05:06:35.896Z,38.63
2024-01-05T05:09:05.565Z,38.58
2024-01-05T05:11:33.645Z,39.90
2024-01-05T05:14:00.432Z,37.63
2024-01-05T05:16:28.112Z,39.38
2024-01-05T05:18:59.436Z,38.60
2024-01-05T05:21:27.774Z,39.42
2024-01-05T05:24:04.548Z,38.80
2024-01-05T05:26:37.669Z,39.72
2024-01-05T05:29:07.076Z,39.42
2024-01-05T05:31:33.992Z,37.92
2024-01-05T05:34:00.955Z,39.75
2024-01-05T05:36:27.921Z,38.55
2024-01-05T05:38:59.793Z,39.53
2024-01-05T05:41:31.351Z,40.05
2024-01-05T05:44:03.763Z,38.58
2024-01-05T05:46:31.033Z,38.35
2024-01-05T05:48:58.316Z,40.75
2024-01-05T05:51:25.481Z,39.25
2024-01-05T05:53:52.630Z,38.00
2024-01-05T05:56:19.448Z,41.08
2024-01-05T05:58:46.367Z,39.95
2024-01-05T06:01:13.529Z,41.10
2024-01-05T06:03:40.772Z,40.15
2024-01-05T06:06:20.495Z,38.03
2024-01-05T06:08:51.855Z,39.35
2024-01-05T06:11:19.885Z,40.97
2024-01-05T06:13:57.526Z,40.08
2024-01-05T06:16:24.963Z,40.72
2024-01-05T06:18:52.097Z,40.92
2024-01-05T06:21:19.154Z,41.28
2024-01-05T06:23:46.056Z,43.20
2024-01-05T06:26:13.048Z,42.08
2024-01-05T06:28:39.748Z,42.22
2024-01-05T06:31:09.565Z,43.00
2024-01-05T06:33:38.655Z,41.40
2024-01-05T06:36:06.506Z,41.10
2024-01-05T06:38:33.376Z,41.30
2024-01-05T06:41:00.168Z,41.60
2024-01-05T06:43:26.995Z,42.25
2024-01-05T06:45:53.755Z,42.65
2024-01-05T06:48:20.810Z,43.45
2024-01-05T06:50:47.936Z,44.05
2024-01-05T06:53:14.816Z,42.03
2024-01-05T06:55:41.601Z,41.78
2024-01-05T06:58:08.722Z,43.88
2024-01-05T07:00:36.816Z,41.38
2024-01-05T07:03:04.956Z,42.42
2024-01-05T07:05:34.013Z,43.15
2024-01-05T07:08:00.860Z,42.92
2024-01-05T07:10:27.918Z,40.60
2024-01-05T07:12:56.031Z,40.90
2024-01-05T07:15:23.318Z,40.85
2024-01-05T07:17:50.386Z,40.63
2024-01-05T07:20:20.067Z,44.10
2024-01-05T07:22:55.225Z,39.50
2024-01-05T07:25:23.174Z,40.60
2024-01-05T07:27:50.084Z,41.78
2024-01-05T07:30:17.072Z,39.47
2024-01-05T07:32:44.930Z,39.15
2024-01-05T07:35:11.792Z,38.85
2024-01-05T07:37:38.713Z,39.88
2024-01-05T07:40:06.062Z,40.65
2024-01-05T07:42:32.805Z,40.08
2024-01-05T07:45:02.052Z,38.50
2024-01-05T07:47:29.012Z,40.35
2024-01-05T07:49:58.117Z,40.15
2024-01-05T07:52:25.892Z,39.72
2024-01-05T07:54:52.602Z,40.40
2024-01-05T07:57:29.170Z,39.13
2024-01-05T07:59:56.698Z,40.30
2024-01-05T08:02:23.628Z,38.90
2024-01-05T08:04:50.741Z,39.63
2024-01-05T08:07:17.475Z,40.28
2024-01-05T08:09:51.747Z,40.47
2024-01-05T08:12:26.558Z,42.03
2024-01-05T08:14:53.357Z,40.25
2024-01-05T08:17:21.954Z,43.40
2024-01-05T08:19:48.975Z,42.22
2024-01-05T08:22:15.855Z,40.40
2024-01-05T08:24:42.774Z,40.58
2024-01-05T08:27:10.801Z,40.30
2024-01-05T08:29:37.601Z,41.88
2024-01-05T08:32:04.685Z,43.13
2024-01-05T08:34:31.676Z,42.10
2024-01-05T08:36:58.546Z,43.20
2024-01-05T08:39:25.374Z,41.03
2024-01-05T08:41:57.085Z,41.20
2024-01-05T08:44:26.399Z,42.10
2024-01-05T08:46:56.069Z,41.92
2024-01-05T08:49:23.493Z,41.97
2024-01-05T08:51:50.488Z,41.20
2024-01-05T08:54:17.716Z,41.47
2024-01-05T08:56:44.444Z,41.53
2024-01-05T08:59:11.207Z,41.97
2024-01-05T09:01:39.414Z,41.83
2024-01-05T09:04:06.396Z,39.72
2024-01-05T09:06:34.973Z,40.03
2024-01-05T09:09:04.450Z,43.85
2024-01-05T09:11:32.273Z,43.10
2024-01-05T09:13:59.091Z,41.50
2024-01-05T09:16:25.946Z,41.85
2024-01-05T09:18:56.070Z,41.88
2024-01-05T09:21:23.267Z,42.85
2024-01-05T09:23:50.021Z,43.63
2024-01-05T09:26:18.582Z,44.67
2024-01-05T09:28:45.949Z,45.17
2024-01-05T09:31:12.911Z,44.92
2024-01-05T09:33:39.837Z,41.20
2024-01-05T09:36:10.110Z,44.95
2024-01-05T09:38:37.386Z,45.63
2024-01-05T09:41:04.249Z,44.83
2024-01-05T09:43:30.999Z,44.15
2024-01-05T09:46:02.659Z,45.17
2024-01-05T09:48:36.394Z,43.05
2024-01-05T09:51:10.008Z,42.92
2024-01-05T09:53:39.391Z,43.45
2024-01-05T09:56:16.063Z,45.63
2024-01-05T09:58:45.226Z,45.38
2024-01-05T10:01:29.383Z,45.58
2024-01-05T10:03:58.801Z,42.85
2024-01-05T10:06:29.596Z,44.38
2024-01-05T10:08:57.894Z,44.10
2024-01-05T10:11:36.984Z,44.65
2024-01-05T10:14:08.633Z,43.42
2024-01-05T10:16:35.541Z,43.85
2024-01-05T10:19:20.714Z,42.38
2024-01-05T10:21:49.169Z,41.50
2024-01-05T10:24:35.136Z,40.75
2024-01-05T10:27:09.900Z,43.28
2024-01-05T10:29:57.337Z,42.17
2024-01-05T10:32:26.831Z,40.75
2024-01-05T10:34:53.643Z,41.70
2024-01-05T10:37:21.013Z,40.47
2024-01-05T10:39:56.478Z,39.63
2024-01-05T10:42:29.317Z,40.28
2024-01-05T10:47:31.789Z,41.38
2024-01-05T10:50:00.505Z,40.75
2024-01-05T10:52:31.203Z,41.55
2024-01-05T10:55:02.524Z,43.58
2024-01-05T10:57:31.567Z,41.75
2024-01-05T10:59:58.882Z,42.42
2024-01-05T11:02:32.648Z,42.33
2024-01-05T11:05:10.666Z,42.47
2024-01-05T11:07:39.242Z,43.67
2024-01-05T11:10:24.855Z,42.92
2024-01-05T11:13:23.340Z,43.08
2024-01-05T11:16:39.104Z,41.72
2024-01-05T11:19:29.951Z,43.00
2024-01-05T11:22:02.813Z,43.33
2024-01-05T11:24:30.236Z,44.15
2024-01-05T11:26:57.077Z,42.05
2024-01-05T11:29:50.021Z,41.50
2024-01-05T11:32:44.461Z,38.78
2024-01-05T11:35:17.073Z,40.92
2024-01-05T11:37:48.087Z,42.20
2024-01-05T11:40:41.625Z,44.65
2024-01-05T11:43:35.696Z,41.22
2024-01-05T11:46:02.634Z,39.90
2024-01-05T11:48:53.433Z,40.13
2024-01-05T11:51:44.276Z,41.05
2024-01-05T11:54:12.854Z,40.35
2024-01-05T11:56:40.753Z,39.65
2024-01-05T11:59:23.725Z,40.70
2024-01-05T12:02:01.086Z,42.72
2024-01-05T12:04:29.867Z,39.63
2024-01-05T12:06:57.499Z,40.67
2024-01-05T12:09:31.252Z,40.75
2024-01-05T12:12:17.154Z,39.75
2024-01-05T12:14:44.064Z,40.45
2024-01-05T12:17:20.322Z,41.70
2024-01-05T12:19:47.218Z,41.25
2024-01-05T12:22:13.999Z,41.13
2024-01-05T12:24:49.523Z,40.67
2024-01-05T12:27:16.513Z,40.95
2024-01-05T12:29:49.564Z,38.75
2024-01-05T12:32:18.715Z,38.08
2024-01-05T12:34:45.574Z,40.10
2024-01-05T12:37:12.352Z,40.63
2024-01-05T12:39:40.184Z,40.65
2024-01-05T12:42:07.611Z,39.80
2024-01-05T12:47:29.252Z,40.42
2024-01-05T12:50:01.139Z,41.55
2024-01-05T12:52:41.550Z,40.00
2024-01-05T12:55:08.826Z,41.70
2024-01-05T12:57:35.882Z,41.30
2024-01-05T13:00:05.376Z,38.78
2024-01-05T13:02:41.820Z,39.53
2024-01-05T13:05:31.158Z,40.53
2024-01-05T13:07:59.266Z,38.38
2024-01-05T13:10:26.721Z,38.88
2024-01-05T13:12:54.186Z,39.58
2024-01-05T13:15:21.417Z,39.67
2024-01-05T13:17:50.453Z,40.20
2024-01-05T13:20:18.786Z,38.53
2024-01-05T13:22:46.492Z,39.70
2024-01-05T13:25:19.093Z,37.70
2024-01-05T13:27:46.355Z,38.75
2024-01-05T13:30:15.123Z,39.08
2024-01-05T13:32:44.145Z,38.28
2024-01-05T13:35:11.298Z,38.67
2024-01-05T13:37:41.437Z,38.67
2024-01-05T13:40:08.890Z,38.53
2024-01-05T13:42:35.696Z,38.15
2024-01-05T13:45:02.946Z,38.08
2024-01-05T13:47:39.826Z,37.63
2024-01-05T13:50:11.629Z,36.65
2024-01-05T13:52:41.272Z,35.63
2024-01-05T13:55:08.678Z,37.08
2024-01-05T13:57:38.847Z,36.88
2024-01-05T14:00:06.897Z,35.97
2024-01-05T14:02:33.931Z,36.92
2024-01-05T14:05:00.812Z,38.33
2024-01-05T14:07:27.774Z,39.45
2024-01-05T14:09:54.589Z,38.13
2024-01-05T14:12:21.393Z,38.42
2024-01-05T14:14:50.830Z,36.72
2024-01-05T14:17:17.588Z,38.13
2024-01-05T14:19:44.424Z,35.20
2024-01-05T14:22:11.274Z,36.65
2024-01-05T14:24:40.623Z,39.30
2024-01-05T14:27:07.659Z,36.55
2024-01-05T14:29:34.455Z,37.15
2024-01-05T14:32:06.549Z,36.38
2024-01-05T14:37:00.695Z,35.83
2024-01-05T14:39:27.462Z,37.08
2024-01-05T14:41:54.317Z,34.65
2024-01-05T14:44:21.104Z,36.10
2024-01-05T14:46:47.878Z,37.25
2024-01-05T14:49:20.639Z,35.75
2024-01-05T14:51:47.829Z,36.03
2024-01-05T14:54:24.779Z,34.88
2024-01-05T14:56:54.263Z,34.60
2024-01-05T14:59:21.016Z,35.78
2024-01-05T15:01:47.808Z,35.08
2024-01-05T15:04:14.828Z,34.97
2024-01-05T15:06:41.714Z,33.50
2024-01-05T15:09:09.121Z,34.08
2024-01-05T15:11:35.851Z,36.42
2024-01-05T15:14:02.787Z,34.67
2024-01-05T15:16:29.564Z,35.20
2024-01-05T15:18:56.452Z,34.70
2024-01-05T15:21:26.593Z,34.13
2024-01-05T15:24:00.396Z,34.63
2024-01-05T15:26:27.269Z,33.92
2024-01-05T15:28:54.114Z,34.28
2024-01-05T15:31:21.985Z,35.08
2024-01-05T15:33:50.517Z,35.78
2024-01-05T15:36:19.071Z,33.00
2024-01-05T15:38:46.349Z,33.75
2024-01-05T15:41:13.544Z,33.97
2024-01-05T15:43:45.652Z,35.83
2024-01-05T15:48:39.367Z,34.88
2024-01-05T15:51:10.116Z,34.03
2024-01-05T15:53:39.773Z,35.65
2024-01-05T15:56:06.855Z,33.95
2024-01-05T15:58:33.579Z,34.35
2024-01-05T16:01:00.412Z,34.13
2024-01-05T16:03:29.479Z,35.08
2024-01-05T16:05:56.836Z,34.30
2024-01-05T16:08:23.744Z,35.53
2024-01-05T16:10:50.716Z,36.50
2024-01-05T16:13:17.551Z,36.90
2024-01-05T16:15:44.388Z,35.65
2024-01-05T16:18:11.283Z,35.53
2024-01-05T16:20:39.606Z,36.58
2024-01-05T16:23:06.354Z,34.40
2024-01-05T16:25:33.192Z,34.40
2024-01-05T16:28:00.280Z,36.45
2024-01-05T16:30:27.181Z,34.92
2024-01-05T16:32:53.939Z,35.53
2024-01-05T16:35:23.702Z,36.58
2024-01-05T16:37:56.572Z,34.92
2024-01-05T16:40:31.050Z,35.42
2024-01-05T16:42:58.417Z,35.60
2024-01-05T16:45:28.104Z,35.78
2024-01-05T16:47:58.789Z,37.58
2024-01-05T16:50:25.898Z,35.92
2024-01-05T16:52:52.739Z,37.72
2024-01-05T16:55:22.116Z,37.15
2024-01-05T16:57:48.985Z,36.28
2024-01-05T17:00:16.463Z,35.47
2024-01-05T17:02:43.835Z,35.92
2024-01-05T17:05:10.807Z,34.40
2024-01-05T17:07:41.401Z,32.33
2024-01-05T17:10:08.567Z,35.40
2024-01-05T17:12:35.387Z,33.20
2024-01-05T17:15:12.478Z,33.60
2024-01-05T17:17:44.325Z,33.97
2024-01-05T17:20:21.187Z,33.85
2024-01-05T17:22:53.010Z,32.50
2024-01-05T17:25:19.813Z,33.63
2024-01-05T17:27:46.869Z,31.42
2024-01-05T17:30:14.173Z,33.70
2024-01-05T17:32:41.013Z,33.35
2024-01-05T17:35:08.093Z,33.83
2024-01-05T17:37:37.455Z,32.97
2024-01-05T17:40:21.739Z,33.53
2024-01-05T17:42:53.188Z,35.50
2024-01-05T17:45:23.442Z,34.28
2024-01-05T17:47:55.187Z,33.13
2024-01-05T17:50:22.419Z,33.25
2024-01-05T17:52:52.255Z,32.30
2024-01-05T17:55:19.146Z,31.33
2024-01-05T17:57:46.021Z,34.17
2024-01-05T18:00:13.478Z,31.35
2024-01-05T18:02:40.238Z,31.20
2024-01-05T18:05:07.264Z,30.08
2024-01-05T18:07:34.362Z,29.48
2024-01-05T18:10:01.716Z,30.10
2024-01-05T18:12:28.556Z,28.95
2024-01-05T18:14:55.396Z,27.73
2024-01-05T18:17:22.132Z,27.63
2024-01-05T18:19:49.078Z,27.00
2024-01-05T18:22:15.981Z,27.80
2024-01-05T18:24:48.828Z,27.65
2024-01-05T18:27:18.078Z,25.73
2024-01-05T18:29:45.176Z,25.67
2024-01-05T18:32:11.895Z,25.23
2024-01-05T18:34:41.646Z,26.27
2024-01-05T18:37:08.525Z,24.45
2024-01-05T18:39:37.018Z,24.10
2024-01-05T18:42:04.048Z,24.83
2024-01-05T18:44:30.865Z,25.83
2024-01-05T18:46:59.124Z,24.77
2024-01-05T18:49:25.924Z,24.30
2024-01-05T18:51:52.799Z,24.42
2024-01-05T18:54:19.669Z,24.20
2024-01-05T18:56:46.878Z,24.67
2024-01-05T18:59:13.603Z,23.48
2024-01-05T19:01:40.464Z,23.30
2024-01-05T19:04:07.503Z,23.80
2024-01-05T19:06:34.330Z,23.60
2024-01-05T19:09:01.096Z,23.95
2024-01-05T19:11:30.544Z,24.98
2024-01-05T19:13:57.381Z,23.00
2024-01-05T19:16:25.843Z,22.23
2024-01-05T19:18:55.177Z,22.10
2024-01-05T19:21:21.982Z,21.67
2024-01-05T19:23:50.061Z,22.25
2024-01-05T19:26:19.865Z,22.38
2024-01-05T19:28:46.698Z,20.88
2024-01-05T19:31:13.574Z,21.23
2024-01-05T19:33:44.860Z,22.23
2024-01-05T19:36:19.734Z,22.33
2024-01-05T19:38:46.484Z,21.58
2024-01-05T19:41:13.296Z,21.27
2024-01-05T19:43:40.220Z,24.10
2024-01-05T19:46:08.409Z,20.50
2024-01-05T19:48:35.384Z,22.83
2024-01-05T19:51:05.464Z,22.23
2024-01-05T19:53:32.263Z,22.83
2024-01-05T19:55:59.038Z,39.08
2024-01-05T19:58:25.793Z,42.42
2024-01-05T20:00:52.614Z,43.65
2024-01-05T20:03:22.822Z,47.42
2024-01-05T20:05:52.789Z,48.47
2024-01-05T20:08:19.587Z,45.95
2024-01-05T20:10:50.696Z,46.50
2024-01-05T20:13:17.803Z,47.17
2024-01-05T20:15:44.939Z,45.83
2024-01-05T20:18:11.890Z,45.80
2024-01-05T20:20:38.837Z,44.30
2024-01-05T20:23:19.855Z,44.55
2024-01-05T20:25:50.905Z,46.67
2024-01-05T20:28:23.986Z,42.95
2024-01-05T20:30:58.081Z,43.15
2024-01-05T20:33:25.075Z,42.78
2024-01-05T20:35:53.525Z,44.55
2024-01-05T20:38:20.438Z,43.53
2024-01-05T20:40:47.245Z,44.50
2024-01-05T20:43:27.697Z,42.10
2024-01-05T20:45:56.210Z,43.30
2024-01-05T20:48:23.236Z,41.28
2024-01-05T20:50:50.773Z,43.63
2024-01-05T20:53:18.032Z,42.58
2024-01-05T20:55:45.004Z,43.28
2024-01-05T20:58:12.098Z,42.95
2024-01-05T21:00:51.521Z,40.33
2024-01-05T21:03:20.142Z,42.55
2024-01-05T21:05:46.976Z,42.28
2024-01-05T21:08:13.802Z,43.28
2024-01-05T21:10:40.608Z,41.95
2024-01-05T21:13:07.393Z,45.05
2024-01-05T21:15:34.185Z,41.28
2024-01-05T21:18:01.039Z,41.53
2024-01-05T21:20:27.948Z,40.50
2024-01-05T21:23:05.984Z,39.70
2024-01-05T21:25:33.949Z,39.90
2024-01-05T21:28:00.747Z,41.20
2024-01-05T21:30:27.647Z,38.63
2024-01-05T21:32:54.638Z,40.58
2024-01-05T21:35:21.525Z,38.95
2024-01-05T21:37:50.792Z,38.38
2024-01-05T21:40:18.529Z,39.42
2024-01-05T21:42:45.344Z,38.85
2024-01-05T21:45:12.153Z,40.67
2024-01-05T21:47:48.293Z,39.58
2024-01-05T21:50:16.552Z,41.15
2024-01-05T21:52:43.290Z,38.28
2024-01-05T21:55:10.075Z,41.60
2024-01-05T21:57:36.855Z,38.15
2024-01-05T22:00:03.830Z,38.17
2024-01-05T22:02:30.670Z,38.50
2024-01-05T22:04:57.469Z,37.10
2024-01-05T22:07:26.764Z,35.22
2024-01-05T22:09:53.766Z,35.05
2024-01-05T22:12:20.576Z,36.33
2024-01-05T22:14:51.702Z,35.65
2024-01-05T22:17:18.638Z,33.60
2024-01-05T22:19:49.457Z,35.35
2024-01-05T22:22:16.350Z,34.22
2024-01-05T22:24:47.831Z,34.38
2024-01-05T22:27:14.741Z,32.38
2024-01-05T22:29:49.744Z,31.92
2024-01-05T22:32:19.427Z,31.58
2024-01-05T22:34:46.838Z,29.50
2024-01-05T22:37:15.117Z,28.85
2024-01-05T22:39:42.355Z,30.08
2024-01-05T22:42:09.287Z,29.02
2024-01-05T22:44:41.217Z,26.80
2024-01-05T22:47:07.985Z,25.25
2024-01-05T22:49:38.618Z,26.02
2024-01-05T22:52:09.913Z,23.75
2024-01-05T22:54:36.967Z,24.65
2024-01-05T22:57:03.984Z,24.30
2024-01-05T22:59:33.856Z,22.27
2024-01-05T23:02:07.071Z,22.67
2024-01-05T23:04:33.986Z,20.15
2024-01-05T23:07:02.369Z,21.27
2024-01-05T23:09:31.900Z,20.42
2024-01-05T23:11:58.643Z,19.00
2024-01-05T23:14:25.460Z,17.98
2024-01-05T23:16:52.187Z,17.38
2024-01-05T23:19:19.714Z,16.92
2024-01-05T23:21:46.503Z,16.15
2024-01-05T23:24:15.331Z,15.32
2024-01-05T23:26:43.774Z,13.80
2024-01-05T23:29:11.844Z,14.50
2024-01-05T23:31:39.655Z,13.23
2024-01-05T23:34:16.329Z,13.55
2024-01-05T23:36:44.615Z,13.20
2024-01-05T23:39:11.547Z,13.45
2024-01-05T23:41:38.361Z,12.85
2024-01-05T23:44:06.423Z,11.32
2024-01-05T23:46:33.383Z,11.50
2024-01-05T23:49:03.308Z,11.65
2024-01-05T23:51:39.539Z,11.82
2024-01-05T23:54:10.220Z,11.15
2024-01-05T23:56:47.136Z,10.77
2024-01-05T23:59:14.797Z,11.15
